Martinsville, Ohio
Current Conditions -  °F | °C
As of 12:54 AM on Wednesday 22 Oct 2014 (Local Time) from KILN Reporting Station
Overcast Overcast  
Wind Chill: 40°   Ceiling: 3300
Heat Index: 45°   Visibility: 10mi
Dew Point: 37°   Wind: 9mph
Humidity: 74%   Direction: 360°N
Pressure: 30.16"   Gusts: NA
Location:  39.32°N, 83.81°W
Report Text: KILN 220454Z AUTO 36008KT 10SM OVC033 07/03 A3016 RMK AO2 SLP225 T00720028 401220072
Loading
Personal Weather Stations






























Interactive Weather Map
Tropical Storm Tracking
New forecast layout! Learn more

10-Day Weather Forecast

Advertisements
Track Severe Weather on mobile